sensor_id;sensor_type;location;lat;lon;timestamp;temperature;humidity
30381;DHT22;17169;50.966;11.038;2023-04-19T00:00:16;10.50;99.90
30381;DHT22;17169;50.966;11.038;2023-04-19T00:03:18;10.50;99.90
30381;DHT22;17169;50.966;11.038;2023-04-19T00:06:22;10.50;99.90
30381;DHT22;17169;50.966;11.038;2023-04-19T00:09:25;10.40;99.90
30381;DHT22;17169;50.966;11.038;2023-04-19T00:12:28;10.40;99.90
30381;DHT22;17169;50.966;11.038;2023-04-19T00:15:30;10.30;99.90
30381;DHT22;17169;50.966;11.038;2023-04-19T00:18:35;10.30;99.90
30381;DHT22;17169;50.966;11.038;2023-04-19T00:21:40;10.30;99.90
30381;DHT22;17169;50.966;11.038;2023-04-19T00:24:42;10.30;99.90
30381;DHT22;17169;50.966;11.038;2023-04-19T00:27:45;10.30;99.90
30381;DHT22;17169;50.966;11.038;2023-04-19T00:30:47;10.30;99.90
30381;DHT22;17169;50.966;11.038;2023-04-19T00:33:50;10.30;99.90
30381;DHT22;17169;50.966;11.038;2023-04-19T00:36:54;10.30;99.90
30381;DHT22;17169;50.966;11.038;2023-04-19T00:39:57;10.20;99.90
30381;DHT22;17169;50.966;11.038;2023-04-19T00:42:59;10.20;99.90
30381;DHT22;17169;50.966;11.038;2023-04-19T00:46:01;10.20;99.90
30381;DHT22;17169;50.966;11.038;2023-04-19T00:49:04;10.10;99.90
30381;DHT22;17169;50.966;11.038;2023-04-19T00:52:08;10.10;99.90
30381;DHT22;17169;50.966;11.038;2023-04-19T00:55:11;10.10;99.90
30381;DHT22;17169;50.966;11.038;2023-04-19T00:58:13;10.10;99.90
30381;DHT22;17169;50.966;11.038;2023-04-19T01:01:16;10.00;99.90
30381;DHT22;17169;50.966;11.038;2023-04-19T01:04:18;10.00;99.90
30381;DHT22;17169;50.966;11.038;2023-04-19T01:07:24;10.00;99.90
30381;DHT22;17169;50.966;11.038;2023-04-19T01:10:27;10.00;99.90
30381;DHT22;17169;50.966;11.038;2023-04-19T01:13:29;10.00;99.90
30381;DHT22;17169;50.966;11.038;2023-04-19T01:16:31;10.00;99.90
30381;DHT22;17169;50.966;11.038;2023-04-19T01:19:35;10.00;99.90
30381;DHT22;17169;50.966;11.038;2023-04-19T01:22:40;10.00;99.90
30381;DHT22;17169;50.966;11.038;2023-04-19T01:25:42;10.00;99.90
30381;DHT22;17169;50.966;11.038;2023-04-19T01:28:44;10.00;99.90
30381;DHT22;17169;50.966;11.038;2023-04-19T01:31:47;9.90;99.90
30381;DHT22;17169;50.966;11.038;2023-04-19T01:34:53;9.90;99.90
30381;DHT22;17169;50.966;11.038;2023-04-19T01:37:57;9.90;99.90
30381;DHT22;17169;50.966;11.038;2023-04-19T01:40:59;9.90;99.90
30381;DHT22;17169;50.966;11.038;2023-04-19T01:44:01;9.80;99.90
30381;DHT22;17169;50.966;11.038;2023-04-19T01:47:04;9.80;99.90
30381;DHT22;17169;50.966;11.038;2023-04-19T01:50:07;9.70;99.90
30381;DHT22;17169;50.966;11.038;2023-04-19T01:53:11;9.70;99.90
30381;DHT22;17169;50.966;11.038;2023-04-19T01:56:13;9.60;99.90
30381;DHT22;17169;50.966;11.038;2023-04-19T01:59:16;9.60;99.90
30381;DHT22;17169;50.966;11.038;2023-04-19T02:02:18;9.60;99.90
30381;DHT22;17169;50.966;11.038;2023-04-19T02:05:20;9.50;99.90
30381;DHT22;17169;50.966;11.038;2023-04-19T02:08:25;9.50;99.90
30381;DHT22;17169;50.966;11.038;2023-04-19T02:11:27;9.50;99.90
30381;DHT22;17169;50.966;11.038;2023-04-19T02:14:30;9.50;99.90
30381;DHT22;17169;50.966;11.038;2023-04-19T02:17:32;9.40;99.90
30381;DHT22;17169;50.966;11.038;2023-04-19T02:20:35;9.40;99.90
30381;DHT22;17169;50.966;11.038;2023-04-19T02:23:39;9.30;99.90
30381;DHT22;17169;50.966;11.038;2023-04-19T02:26:42;9.30;99.90
30381;DHT22;17169;50.966;11.038;2023-04-19T02:29:44;9.30;99.90
30381;DHT22;17169;50.966;11.038;2023-04-19T02:32:47;9.30;99.90
30381;DHT22;17169;50.966;11.038;2023-04-19T02:35:49;9.30;99.90
30381;DHT22;17169;50.966;11.038;2023-04-19T02:38:53;9.30;99.90
30381;DHT22;17169;50.966;11.038;2023-04-19T02:41:55;9.30;99.90
30381;DHT22;17169;50.966;11.038;2023-04-19T02:44:57;9.30;99.90
30381;DHT22;17169;50.966;11.038;2023-04-19T02:48:00;9.30;99.90
30381;DHT22;17169;50.966;11.038;2023-04-19T02:51:03;9.30;99.90
30381;DHT22;17169;50.966;11.038;2023-04-19T02:54:07;9.30;99.90
30381;DHT22;17169;50.966;11.038;2023-04-19T02:57:09;9.30;99.90
30381;DHT22;17169;50.966;11.038;2023-04-19T03:00:12;9.30;99.90
30381;DHT22;17169;50.966;11.038;2023-04-19T03:03:15;9.30;99.90
30381;DHT22;17169;50.966;11.038;2023-04-19T03:06:17;9.20;99.90
30381;DHT22;17169;50.966;11.038;2023-04-19T03:09:21;9.20;99.90
30381;DHT22;17169;50.966;11.038;2023-04-19T03:12:23;9.10;99.90
30381;DHT22;17169;50.966;11.038;2023-04-19T03:15:26;9.10;99.90
30381;DHT22;17169;50.966;11.038;2023-04-19T03:18:28;9.00;99.90
30381;DHT22;17169;50.966;11.038;2023-04-19T03:21:30;8.90;99.90
30381;DHT22;17169;50.966;11.038;2023-04-19T03:24:34;8.80;99.90
30381;DHT22;17169;50.966;11.038;2023-04-19T03:27:37;8.80;99.90
30381;DHT22;17169;50.966;11.038;2023-04-19T03:30:39;8.70;99.90
30381;DHT22;17169;50.966;11.038;2023-04-19T03:33:42;8.60;99.90
30381;DHT22;17169;50.966;11.038;2023-04-19T03:36:44;8.50;99.90
30381;DHT22;17169;50.966;11.038;2023-04-19T03:39:48;8.50;99.90
30381;DHT22;17169;50.966;11.038;2023-04-19T03:42:50;8.40;99.90
30381;DHT22;17169;50.966;11.038;2023-04-19T03:45:53;8.20;99.90
30381;DHT22;17169;50.966;11.038;2023-04-19T03:48:55;8.10;99.90
30381;DHT22;17169;50.966;11.038;2023-04-19T03:51:57;8.00;99.90
30381;DHT22;17169;50.966;11.038;2023-04-19T03:55:01;8.00;99.90
30381;DHT22;17169;50.966;11.038;2023-04-19T03:58:04;8.10;99.90
30381;DHT22;17169;50.966;11.038;2023-04-19T04:01:06;8.00;99.90
30381;DHT22;17169;50.966;11.038;2023-04-19T04:04:09;8.00;99.90
30381;DHT22;17169;50.966;11.038;2023-04-19T04:07:11;7.90;99.90
30381;DHT22;17169;50.966;11.038;2023-04-19T04:10:15;7.90;99.90
30381;DHT22;17169;50.966;11.038;2023-04-19T04:13:18;7.70;99.90
30381;DHT22;17169;50.966;11.038;2023-04-19T04:16:20;7.70;99.90
30381;DHT22;17169;50.966;11.038;2023-04-19T04:19:22;7.60;99.90
30381;DHT22;17169;50.966;11.038;2023-04-19T04:22:25;7.50;99.90
30381;DHT22;17169;50.966;11.038;2023-04-19T04:25:29;7.50;99.90
30381;DHT22;17169;50.966;11.038;2023-04-19T04:28:33;7.40;99.90
30381;DHT22;17169;50.966;11.038;2023-04-19T04:31:35;7.30;99.90
30381;DHT22;17169;50.966;11.038;2023-04-19T04:34:38;7.20;99.90
30381;DHT22;17169;50.966;11.038;2023-04-19T04:37:40;7.20;99.90
30381;DHT22;17169;50.966;11.038;2023-04-19T04:40:48;7.20;99.90
30381;DHT22;17169;50.966;11.038;2023-04-19T04:43:50;7.20;99.90
30381;DHT22;17169;50.966;11.038;2023-04-19T04:46:53;7.20;99.90
30381;DHT22;17169;50.966;11.038;2023-04-19T04:49:55;7.30;99.90
30381;DHT22;17169;50.966;11.038;2023-04-19T04:52:58;7.30;99.90
30381;DHT22;17169;50.966;11.038;2023-04-19T04:56:02;7.30;99.90
30381;DHT22;17169;50.966;11.038;2023-04-19T04:59:04;7.40;99.90
30381;DHT22;17169;50.966;11.038;2023-04-19T05:02:07;7.30;99.90
30381;DHT22;17169;50.966;11.038;2023-04-19T05:05:10;7.30;99.90
30381;DHT22;17169;50.966;11.038;2023-04-19T05:08:12;7.40;99.90
30381;DHT22;17169;50.966;11.038;2023-04-19T05:11:16;7.50;99.90
30381;DHT22;17169;50.966;11.038;2023-04-19T05:14:18;7.50;99.90
30381;DHT22;17169;50.966;11.038;2023-04-19T05:17:21;7.60;99.90
30381;DHT22;17169;50.966;11.038;2023-04-19T05:20:23;7.60;99.90
30381;DHT22;17169;50.966;11.038;2023-04-19T05:23:25;7.60;99.90
30381;DHT22;17169;50.966;11.038;2023-04-19T05:26:29;7.70;99.90
30381;DHT22;17169;50.966;11.038;2023-04-19T05:29:32;7.70;99.90
30381;DHT22;17169;50.966;11.038;2023-04-19T05:32:34;7.70;99.90
30381;DHT22;17169;50.966;11.038;2023-04-19T05:35:36;7.60;99.90
30381;DHT22;17169;50.966;11.038;2023-04-19T05:38:39;7.60;99.90
30381;DHT22;17169;50.966;11.038;2023-04-19T05:41:43;7.60;99.90
30381;DHT22;17169;50.966;11.038;2023-04-19T05:44:45;7.60;99.90
30381;DHT22;17169;50.966;11.038;2023-04-19T05:47:47;7.60;99.90
30381;DHT22;17169;50.966;11.038;2023-04-19T05:50:50;7.60;99.90
30381;DHT22;17169;50.966;11.038;2023-04-19T05:53:54;7.60;99.90
30381;DHT22;17169;50.966;11.038;2023-04-19T05:56:58;7.70;99.90
30381;DHT22;17169;50.966;11.038;2023-04-19T06:00:01;7.70;99.90
30381;DHT22;17169;50.966;11.038;2023-04-19T06:03:04;7.70;99.90
30381;DHT22;17169;50.966;11.038;2023-04-19T06:06:06;7.70;99.90
30381;DHT22;17169;50.966;11.038;2023-04-19T06:09:08;7.80;99.90
30381;DHT22;17169;50.966;11.038;2023-04-19T06:12:13;7.80;99.90
30381;DHT22;17169;50.966;11.038;2023-04-19T06:15:16;7.90;99.90
30381;DHT22;17169;50.966;11.038;2023-04-19T06:18:18;7.90;99.90
30381;DHT22;17169;50.966;11.038;2023-04-19T06:21:20;7.90;99.90
30381;DHT22;17169;50.966;11.038;2023-04-19T06:24:23;8.00;99.90
30381;DHT22;17169;50.966;11.038;2023-04-19T06:27:26;8.00;99.90
30381;DHT22;17169;50.966;11.038;2023-04-19T06:30:29;8.20;99.90
30381;DHT22;17169;50.966;11.038;2023-04-19T06:33:31;8.20;99.90
30381;DHT22;17169;50.966;11.038;2023-04-19T06:36:33;8.30;99.90
30381;DHT22;17169;50.966;11.038;2023-04-19T06:39:36;8.30;99.90
30381;DHT22;17169;50.966;11.038;2023-04-19T06:42:40;8.40;99.90
30381;DHT22;17169;50.966;11.038;2023-04-19T06:45:42;8.40;99.90
30381;DHT22;17169;50.966;11.038;2023-04-19T06:48:44;8.50;99.90
30381;DHT22;17169;50.966;11.038;2023-04-19T06:51:47;8.60;99.90
30381;DHT22;17169;50.966;11.038;2023-04-19T06:54:50;8.60;99.90
30381;DHT22;17169;50.966;11.038;2023-04-19T06:57:54;8.60;99.90
30381;DHT22;17169;50.966;11.038;2023-04-19T07:00:56;8.80;99.90
30381;DHT22;17169;50.966;11.038;2023-04-19T07:03:59;8.90;99.90
30381;DHT22;17169;50.966;11.038;2023-04-19T07:07:02;9.00;99.90
30381;DHT22;17169;50.966;11.038;2023-04-19T07:10:05;9.00;99.90
30381;DHT22;17169;50.966;11.038;2023-04-19T07:13:09;9.00;99.90
30381;DHT22;17169;50.966;11.038;2023-04-19T07:16:12;9.00;99.90
30381;DHT22;17169;50.966;11.038;2023-04-19T07:19:14;9.10;99.90
30381;DHT22;17169;50.966;11.038;2023-04-19T07:22:19;9.20;99.90
30381;DHT22;17169;50.966;11.038;2023-04-19T07:25:22;9.20;99.90
30381;DHT22;17169;50.966;11.038;2023-04-19T07:28:27;9.30;99.90
30381;DHT22;17169;50.966;11.038;2023-04-19T07:31:30;9.40;99.90
30381;DHT22;17169;50.966;11.038;2023-04-19T07:34:32;9.30;99.90
30381;DHT22;17169;50.966;11.038;2023-04-19T07:37:34;9.40;99.90
30381;DHT22;17169;50.966;11.038;2023-04-19T07:40:37;9.50;99.90
30381;DHT22;17169;50.966;11.038;2023-04-19T07:43:40;9.60;99.80
30381;DHT22;17169;50.966;11.038;2023-04-19T07:46:43;9.60;99.00
30381;DHT22;17169;50.966;11.038;2023-04-19T07:49:45;9.70;98.70
30381;DHT22;17169;50.966;11.038;2023-04-19T07:52:47;9.70;98.30
30381;DHT22;17169;50.966;11.038;2023-04-19T07:55:50;9.60;98.00
30381;DHT22;17169;50.966;11.038;2023-04-19T07:58:54;9.50;98.80
30381;DHT22;17169;50.966;11.038;2023-04-19T08:01:56;9.50;98.90
30381;DHT22;17169;50.966;11.038;2023-04-19T08:04:58;9.50;99.30
30381;DHT22;17169;50.966;11.038;2023-04-19T08:08:02;9.60;98.80
30381;DHT22;17169;50.966;11.038;2023-04-19T08:11:04;9.60;99.10
30381;DHT22;17169;50.966;11.038;2023-04-19T08:14:08;9.70;98.90
30381;DHT22;17169;50.966;11.038;2023-04-19T08:17:10;9.70;98.40
30381;DHT22;17169;50.966;11.038;2023-04-19T08:20:13;9.80;98.60
30381;DHT22;17169;50.966;11.038;2023-04-19T08:23:16;9.90;98.20
30381;DHT22;17169;50.966;11.038;2023-04-19T08:26:19;9.90;98.10
30381;DHT22;17169;50.966;11.038;2023-04-19T08:29:24;9.90;98.00
30381;DHT22;17169;50.966;11.038;2023-04-19T08:32:26;9.90;97.70
30381;DHT22;17169;50.966;11.038;2023-04-19T08:35:29;10.00;98.20
30381;DHT22;17169;50.966;11.038;2023-04-19T08:38:31;10.10;98.30
30381;DHT22;17169;50.966;11.038;2023-04-19T08:41:33;10.10;97.70
30381;DHT22;17169;50.966;11.038;2023-04-19T08:44:39;10.20;97.20
30381;DHT22;17169;50.966;11.038;2023-04-19T08:47:41;10.20;96.30
30381;DHT22;17169;50.966;11.038;2023-04-19T08:50:43;10.20;96.90
30381;DHT22;17169;50.966;11.038;2023-04-19T08:53:47;10.20;96.80
30381;DHT22;17169;50.966;11.038;2023-04-19T08:56:51;10.30;96.60
30381;DHT22;17169;50.966;11.038;2023-04-19T08:59:55;10.30;96.10
30381;DHT22;17169;50.966;11.038;2023-04-19T09:02:58;10.30;95.70
30381;DHT22;17169;50.966;11.038;2023-04-19T09:06:00;10.30;94.70
30381;DHT22;17169;50.966;11.038;2023-04-19T09:09:16;10.30;95.30
30381;DHT22;17169;50.966;11.038;2023-04-19T09:12:19;10.30;95.80
30381;DHT22;17169;50.966;11.038;2023-04-19T09:15:35;10.50;96.00
30381;DHT22;17169;50.966;11.038;2023-04-19T09:18:52;10.50;95.10
30381;DHT22;17169;50.966;11.038;2023-04-19T09:21:55;10.60;94.60
30381;DHT22;17169;50.966;11.038;2023-04-19T09:24:58;10.50;94.50
30381;DHT22;17169;50.966;11.038;2023-04-19T09:28:10;10.60;94.30
30381;DHT22;17169;50.966;11.038;2023-04-19T09:31:14;10.70;94.50
30381;DHT22;17169;50.966;11.038;2023-04-19T09:34:18;10.70;93.50
30381;DHT22;17169;50.966;11.038;2023-04-19T09:37:21;10.70;93.70
30381;DHT22;17169;50.966;11.038;2023-04-19T09:40:24;10.80;93.80
30381;DHT22;17169;50.966;11.038;2023-04-19T09:43:27;10.80;93.10
30381;DHT22;17169;50.966;11.038;2023-04-19T09:46:32;10.70;93.70
30381;DHT22;17169;50.966;11.038;2023-04-19T09:49:36;10.80;93.50
30381;DHT22;17169;50.966;11.038;2023-04-19T09:52:38;10.70;93.40
30381;DHT22;17169;50.966;11.038;2023-04-19T09:55:40;10.70;93.20
30381;DHT22;17169;50.966;11.038;2023-04-19T09:58:43;10.80;93.40
30381;DHT22;17169;50.966;11.038;2023-04-19T10:01:52;10.80;92.90
30381;DHT22;17169;50.966;11.038;2023-04-19T10:04:56;11.00;93.20
30381;DHT22;17169;50.966;11.038;2023-04-19T10:08:00;11.10;93.00
30381;DHT22;17169;50.966;11.038;2023-04-19T10:11:04;11.40;93.50
30381;DHT22;17169;50.966;11.038;2023-04-19T10:14:08;11.70;92.30
30381;DHT22;17169;50.966;11.038;2023-04-19T10:17:12;11.70;91.20
30381;DHT22;17169;50.966;11.038;2023-04-19T10:20:19;11.70;91.50
30381;DHT22;17169;50.966;11.038;2023-04-19T10:23:24;11.70;91.90
30381;DHT22;17169;50.966;11.038;2023-04-19T10:26:26;11.80;91.40
30381;DHT22;17169;50.966;11.038;2023-04-19T10:29:53;11.80;91.80
30381;DHT22;17169;50.966;11.038;2023-04-19T10:32:58;11.90;92.00
30381;DHT22;17169;50.966;11.038;2023-04-19T10:36:06;12.10;92.40
30381;DHT22;17169;50.966;11.038;2023-04-19T10:39:39;12.20;92.00
30381;DHT22;17169;50.966;11.038;2023-04-19T10:43:15;12.40;91.50
30381;DHT22;17169;50.966;11.038;2023-04-19T10:46:36;12.60;91.50
30381;DHT22;17169;50.966;11.038;2023-04-19T10:49:45;12.80;91.10
30381;DHT22;17169;50.966;11.038;2023-04-19T10:52:47;12.90;91.30
30381;DHT22;17169;50.966;11.038;2023-04-19T10:55:50;13.00;90.70
30381;DHT22;17169;50.966;11.038;2023-04-19T10:59:12;13.00;90.30
30381;DHT22;17169;50.966;11.038;2023-04-19T11:02:27;13.10;91.20
30381;DHT22;17169;50.966;11.038;2023-04-19T11:06:14;13.30;88.30
30381;DHT22;17169;50.966;11.038;2023-04-19T11:09:21;13.40;89.60
30381;DHT22;17169;50.966;11.038;2023-04-19T11:12:24;13.40;90.00
30381;DHT22;17169;50.966;11.038;2023-04-19T11:15:26;13.30;89.10
30381;DHT22;17169;50.966;11.038;2023-04-19T11:18:29;13.30;89.30
30381;DHT22;17169;50.966;11.038;2023-04-19T11:21:37;13.40;90.60
30381;DHT22;17169;50.966;11.038;2023-04-19T11:24:44;13.60;89.60
30381;DHT22;17169;50.966;11.038;2023-04-19T11:27:50;13.60;90.10
30381;DHT22;17169;50.966;11.038;2023-04-19T11:30:53;13.50;89.00
30381;DHT22;17169;50.966;11.038;2023-04-19T11:33:58;13.50;89.20
30381;DHT22;17169;50.966;11.038;2023-04-19T11:37:02;13.60;87.50
30381;DHT22;17169;50.966;11.038;2023-04-19T11:40:06;13.70;87.10
30381;DHT22;17169;50.966;11.038;2023-04-19T11:43:08;13.90;87.70
30381;DHT22;17169;50.966;11.038;2023-04-19T11:46:12;14.00;85.90
30381;DHT22;17169;50.966;11.038;2023-04-19T11:49:24;14.10;87.40
30381;DHT22;17169;50.966;11.038;2023-04-19T11:52:28;14.10;86.70
30381;DHT22;17169;50.966;11.038;2023-04-19T11:55:32;13.90;87.10
30381;DHT22;17169;50.966;11.038;2023-04-19T11:58:37;13.80;86.90
30381;DHT22;17169;50.966;11.038;2023-04-19T12:01:40;13.90;88.00
30381;DHT22;17169;50.966;11.038;2023-04-19T12:04:42;13.80;86.30
30381;DHT22;17169;50.966;11.038;2023-04-19T12:08:02;13.70;86.30
30381;DHT22;17169;50.966;11.038;2023-04-19T12:11:06;14.10;85.50
30381;DHT22;17169;50.966;11.038;2023-04-19T12:14:08;14.40;85.00
30381;DHT22;17169;50.966;11.038;2023-04-19T12:17:12;14.90;86.20
30381;DHT22;17169;50.966;11.038;2023-04-19T12:20:30;14.80;83.20
30381;DHT22;17169;50.966;11.038;2023-04-19T12:23:35;14.70;82.10
30381;DHT22;17169;50.966;11.038;2023-04-19T12:26:51;14.50;82.60
30381;DHT22;17169;50.966;11.038;2023-04-19T12:29:54;14.40;83.10
30381;DHT22;17169;50.966;11.038;2023-04-19T12:32:57;14.40;83.30
30381;DHT22;17169;50.966;11.038;2023-04-19T12:36:00;14.20;83.80
30381;DHT22;17169;50.966;11.038;2023-04-19T12:39:03;14.10;83.60
30381;DHT22;17169;50.966;11.038;2023-04-19T12:42:07;14.40;84.60
30381;DHT22;17169;50.966;11.038;2023-04-19T12:45:10;14.50;83.40
30381;DHT22;17169;50.966;11.038;2023-04-19T12:48:13;14.40;82.80
30381;DHT22;17169;50.966;11.038;2023-04-19T12:51:15;14.30;83.30
30381;DHT22;17169;50.966;11.038;2023-04-19T12:54:19;14.20;82.70
30381;DHT22;17169;50.966;11.038;2023-04-19T12:57:21;14.50;81.40
30381;DHT22;17169;50.966;11.038;2023-04-19T13:00:24;14.90;81.70
30381;DHT22;17169;50.966;11.038;2023-04-19T13:03:26;14.80;79.10
30381;DHT22;17169;50.966;11.038;2023-04-19T13:06:32;14.70;79.40
30381;DHT22;17169;50.966;11.038;2023-04-19T13:09:36;14.40;80.00
30381;DHT22;17169;50.966;11.038;2023-04-19T13:12:39;14.30;80.90
30381;DHT22;17169;50.966;11.038;2023-04-19T13:15:41;14.70;81.40
30381;DHT22;17169;50.966;11.038;2023-04-19T13:18:44;14.70;80.50
30381;DHT22;17169;50.966;11.038;2023-04-19T13:21:46;15.80;78.20
30381;DHT22;17169;50.966;11.038;2023-04-19T13:24:50;17.00;79.30
30381;DHT22;17169;50.966;11.038;2023-04-19T13:27:52;18.40;74.10
30381;DHT22;17169;50.966;11.038;2023-04-19T13:30:55;19.40;70.00
30381;DHT22;17169;50.966;11.038;2023-04-19T13:33:57;19.60;69.20
30381;DHT22;17169;50.966;11.038;2023-04-19T13:37:00;19.00;65.80
30381;DHT22;17169;50.966;11.038;2023-04-19T13:40:05;19.90;65.80
30381;DHT22;17169;50.966;11.038;2023-04-19T13:43:08;20.90;64.20
30381;DHT22;17169;50.966;11.038;2023-04-19T13:46:10;21.90;62.50
30381;DHT22;17169;50.966;11.038;2023-04-19T13:49:12;23.00;61.70
30381;DHT22;17169;50.966;11.038;2023-04-19T13:52:15;23.20;57.40
30381;DHT22;17169;50.966;11.038;2023-04-19T13:55:19;22.40;55.70
30381;DHT22;17169;50.966;11.038;2023-04-19T13:58:21;21.70;55.60
30381;DHT22;17169;50.966;11.038;2023-04-19T14:01:24;21.00;55.00
30381;DHT22;17169;50.966;11.038;2023-04-19T14:04:27;19.60;57.10
30381;DHT22;17169;50.966;11.038;2023-04-19T14:07:29;18.70;58.90
30381;DHT22;17169;50.966;11.038;2023-04-19T14:10:34;17.70;60.50
30381;DHT22;17169;50.966;11.038;2023-04-19T14:13:36;17.00;62.50
30381;DHT22;17169;50.966;11.038;2023-04-19T14:16:39;16.30;63.90
30381;DHT22;17169;50.966;11.038;2023-04-19T14:19:41;15.70;65.10
30381;DHT22;17169;50.966;11.038;2023-04-19T14:22:44;15.30;66.30
30381;DHT22;17169;50.966;11.038;2023-04-19T14:25:48;14.90;67.20
30381;DHT22;17169;50.966;11.038;2023-04-19T14:28:51;14.80;68.10
30381;DHT22;17169;50.966;11.038;2023-04-19T14:31:53;14.90;68.10
30381;DHT22;17169;50.966;11.038;2023-04-19T14:34:55;15.20;67.50
30381;DHT22;17169;50.966;11.038;2023-04-19T14:37:59;16.50;67.50
30381;DHT22;17169;50.966;11.038;2023-04-19T14:41:03;18.30;65.60
30381;DHT22;17169;50.966;11.038;2023-04-19T14:44:05;20.70;60.10
30381;DHT22;17169;50.966;11.038;2023-04-19T14:47:07;21.30;56.80
30381;DHT22;17169;50.966;11.038;2023-04-19T14:50:10;20.60;55.80
30381;DHT22;17169;50.966;11.038;2023-04-19T14:53:12;19.80;57.60
30381;DHT22;17169;50.966;11.038;2023-04-19T14:56:16;19.20;59.30
30381;DHT22;17169;50.966;11.038;2023-04-19T14:59:19;20.30;59.70
30381;DHT22;17169;50.966;11.038;2023-04-19T15:02:21;22.00;59.40
30381;DHT22;17169;50.966;11.038;2023-04-19T15:05:25;22.00;56.90
30381;DHT22;17169;50.966;11.038;2023-04-19T15:08:28;20.90;57.50
30381;DHT22;17169;50.966;11.038;2023-04-19T15:11:31;19.70;58.50
30381;DHT22;17169;50.966;11.038;2023-04-19T15:14:34;18.70;60.10
30381;DHT22;17169;50.966;11.038;2023-04-19T15:17:36;17.90;61.40
30381;DHT22;17169;50.966;11.038;2023-04-19T15:20:40;17.30;61.60
30381;DHT22;17169;50.966;11.038;2023-04-19T15:23:43;18.00;62.60
30381;DHT22;17169;50.966;11.038;2023-04-19T15:26:46;20.10;60.50
30381;DHT22;17169;50.966;11.038;2023-04-19T15:29:49;22.10;57.00
30381;DHT22;17169;50.966;11.038;2023-04-19T15:32:51;23.60;54.50
30381;DHT22;17169;50.966;11.038;2023-04-19T15:35:54;25.50;53.30
30381;DHT22;17169;50.966;11.038;2023-04-19T15:38:57;27.20;49.60
30381;DHT22;17169;50.966;11.038;2023-04-19T15:42:01;28.20;49.10
30381;DHT22;17169;50.966;11.038;2023-04-19T15:45:05;27.30;47.30
30381;DHT22;17169;50.966;11.038;2023-04-19T15:48:07;25.30;48.20
30381;DHT22;17169;50.966;11.038;2023-04-19T15:51:10;24.00;50.10
30381;DHT22;17169;50.966;11.038;2023-04-19T15:54:13;25.30;50.10
30381;DHT22;17169;50.966;11.038;2023-04-19T15:57:17;26.70;48.00
30381;DHT22;17169;50.966;11.038;2023-04-19T16:00:20;26.00;46.30
30381;DHT22;17169;50.966;11.038;2023-04-19T16:03:23;24.40;47.60
30381;DHT22;17169;50.966;11.038;2023-04-19T16:06:25;23.00;48.90
30381;DHT22;17169;50.966;11.038;2023-04-19T16:09:28;21.90;50.20
30381;DHT22;17169;50.966;11.038;2023-04-19T16:12:32;20.90;51.70
30381;DHT22;17169;50.966;11.038;2023-04-19T16:15:34;20.30;52.80
30381;DHT22;17169;50.966;11.038;2023-04-19T16:18:36;19.50;54.00
30381;DHT22;17169;50.966;11.038;2023-04-19T16:21:39;19.70;55.00
30381;DHT22;17169;50.966;11.038;2023-04-19T16:24:41;20.40;54.20
30381;DHT22;17169;50.966;11.038;2023-04-19T16:27:46;19.80;53.70
30381;DHT22;17169;50.966;11.038;2023-04-19T16:30:48;19.30;53.50
30381;DHT22;17169;50.966;11.038;2023-04-19T16:33:50;18.80;54.30
30381;DHT22;17169;50.966;11.038;2023-04-19T16:36:53;18.00;55.10
30381;DHT22;17169;50.966;11.038;2023-04-19T16:39:56;17.30;56.80
30381;DHT22;17169;50.966;11.038;2023-04-19T16:42:59;16.80;58.10
30381;DHT22;17169;50.966;11.038;2023-04-19T16:46:02;16.20;58.90
30381;DHT22;17169;50.966;11.038;2023-04-19T16:49:04;15.90;60.10
30381;DHT22;17169;50.966;11.038;2023-04-19T16:52:07;15.90;60.50
30381;DHT22;17169;50.966;11.038;2023-04-19T16:55:09;16.10;61.20
30381;DHT22;17169;50.966;11.038;2023-04-19T16:58:13;16.10;61.50
30381;DHT22;17169;50.966;11.038;2023-04-19T17:01:15;16.20;60.10
30381;DHT22;17169;50.966;11.038;2023-04-19T17:04:18;16.00;59.60
30381;DHT22;17169;50.966;11.038;2023-04-19T17:07:20;15.80;60.10
30381;DHT22;17169;50.966;11.038;2023-04-19T17:10:23;15.50;59.70
30381;DHT22;17169;50.966;11.038;2023-04-19T17:13:27;15.30;60.00
30381;DHT22;17169;50.966;11.038;2023-04-19T17:16:29;15.10;60.80
30381;DHT22;17169;50.966;11.038;2023-04-19T17:19:31;15.00;61.50
30381;DHT22;17169;50.966;11.038;2023-04-19T17:22:34;14.70;62.00
30381;DHT22;17169;50.966;11.038;2023-04-19T17:25:36;14.60;62.50
30381;DHT22;17169;50.966;11.038;2023-04-19T17:28:40;14.30;63.00
30381;DHT22;17169;50.966;11.038;2023-04-19T17:31:42;14.10;63.30
30381;DHT22;17169;50.966;11.038;2023-04-19T17:34:45;13.90;64.50
30381;DHT22;17169;50.966;11.038;2023-04-19T17:37:47;13.70;65.00
30381;DHT22;17169;50.966;11.038;2023-04-19T17:40:49;13.60;65.20
30381;DHT22;17169;50.966;11.038;2023-04-19T17:43:53;13.40;65.50
30381;DHT22;17169;50.966;11.038;2023-04-19T17:46:57;13.30;66.10
30381;DHT22;17169;50.966;11.038;2023-04-19T17:50:04;13.10;66.70
30381;DHT22;17169;50.966;11.038;2023-04-19T17:53:07;13.00;66.80
30381;DHT22;17169;50.966;11.038;2023-04-19T17:56:09;12.90;67.20
30381;DHT22;17169;50.966;11.038;2023-04-19T17:59:13;12.80;66.90
30381;DHT22;17169;50.966;11.038;2023-04-19T18:02:15;12.70;66.40
30381;DHT22;17169;50.966;11.038;2023-04-19T18:05:18;12.60;66.60
30381;DHT22;17169;50.966;11.038;2023-04-19T18:08:20;12.50;67.10
30381;DHT22;17169;50.966;11.038;2023-04-19T18:11:22;12.40;67.80
30381;DHT22;17169;50.966;11.038;2023-04-19T18:14:26;12.30;67.90
30381;DHT22;17169;50.966;11.038;2023-04-19T18:17:29;12.20;68.70
30381;DHT22;17169;50.966;11.038;2023-04-19T18:20:31;12.10;68.60
30381;DHT22;17169;50.966;11.038;2023-04-19T18:23:34;12.00;68.70
30381;DHT22;17169;50.966;11.038;2023-04-19T18:26:36;12.00;68.90
30381;DHT22;17169;50.966;11.038;2023-04-19T18:29:41;12.00;69.40
30381;DHT22;17169;50.966;11.038;2023-04-19T18:32:43;11.90;69.60
30381;DHT22;17169;50.966;11.038;2023-04-19T18:35:46;11.80;69.50
30381;DHT22;17169;50.966;11.038;2023-04-19T18:38:48;11.80;69.50
30381;DHT22;17169;50.966;11.038;2023-04-19T18:41:50;11.80;70.50
30381;DHT22;17169;50.966;11.038;2023-04-19T18:44:54;11.70;70.70
30381;DHT22;17169;50.966;11.038;2023-04-19T18:47:58;11.70;70.80
30381;DHT22;17169;50.966;11.038;2023-04-19T18:51:01;11.70;70.90
30381;DHT22;17169;50.966;11.038;2023-04-19T18:54:03;11.60;71.60
30381;DHT22;17169;50.966;11.038;2023-04-19T18:57:05;11.60;71.70
30381;DHT22;17169;50.966;11.038;2023-04-19T19:00:10;11.50;71.80
30381;DHT22;17169;50.966;11.038;2023-04-19T19:03:13;11.50;71.10
30381;DHT22;17169;50.966;11.038;2023-04-19T19:06:15;11.50;70.50
30381;DHT22;17169;50.966;11.038;2023-04-19T19:09:18;11.40;69.90